PWSweather.com
Personal Weather Stations
Station Observations
KMNMADEL2
Andys Live Weather Stations, Madelia, MN 56062

Andys Live Weather StationsMadelia, MN 56062

Lat: 44.04636, Lon: -94.4163437

Elevation: 1006

Station Type: Wireless Davis Instruments Vantage Pro2 Plus

http://www.madeliasliveweather.com/

Latest ConditionsUpdated 3:40:10 PM CDT Tuesday, Aug 30, 2016
Currently Today's Max Today's Min Today's Average
Temperature 78.8°F26.0°C 79.0°F26.1°C 65.5°F18.6°C 70.1°F21.2°C
Dew Point 66.9°F19.4°C 70.0°F21.1°C 62.5°F16.9°C 65.9°F18.8°C
Winds 2.0 mph N3.2 kmh N 10.0 mph E16.1 kmh E - 1.6 mph 2.6 kmh
Wind Gusts 6.0 mph9.7 kmh 19.0 mph30.6 kmh - -
Humidity 67% 91% 65% 87%
Pressure 30.11 in1019.6 mb 30.18 in1022.0 mb 30.07 in1018.3 mb -
Hour Temp Dew Point Humidity Winds Wind Gusts Pressure Precip Precip Rate Daily Precip Total
03:40 PM 78.8°F26.0°C 66.9°F19.4°C 67% 2.0 mph N3.2 kmh N 6.0 mph9.7 kmh 30.11 in1019.6 mb 0.00 in0.0 mm 0.00 in0.0 mm 0.31 in7.9 mm
03:35 PM 78.4°F25.8°C 66.1°F18.9°C 66% 4.0 mph W6.4 kmh W 6.0 mph9.7 kmh 30.11 in1019.6 mb 0.00 in0.0 mm 0.00 in0.0 mm 0.31 in7.9 mm
03:30 PM 78.8°F26.0°C 66.1°F18.9°C 65% 1.0 mph NNW1.6 kmh NNW 4.0 mph6.4 kmh 30.11 in1019.6 mb 0.00 in0.0 mm 0.00 in0.0 mm 0.31 in7.9 mm
03:25 PM 78.7°F25.9°C 67.3°F19.6°C 68% 5.0 mph E8.0 kmh E 7.0 mph11.3 kmh 30.11 in1019.6 mb 0.00 in0.0 mm 0.00 in0.0 mm 0.31 in7.9 mm
03:20 PM 78.6°F25.9°C 68.0°F20.0°C 70% 1.0 mph N1.6 kmh N 7.0 mph11.3 kmh 30.11 in1019.6 mb 0.00 in0.0 mm 0.00 in0.0 mm 0.31 in7.9 mm
03:15 PM 79.0°F26.1°C 68.0°F20.0°C 69% 2.0 mph E3.2 kmh E 7.0 mph11.3 kmh 30.11 in1019.6 mb 0.00 in0.0 mm 0.00 in0.0 mm 0.31 in7.9 mm
03:10 PM 77.6°F25.3°C 68.3°F20.2°C 73% Calm Calm 7.0 mph11.3 kmh 30.11 in1019.6 mb 0.00 in0.0 mm 0.00 in0.0 mm 0.31 in7.9 mm
03:05 PM 77.5°F25.3°C 67.8°F19.9°C 72% 3.0 mph E4.8 kmh E 7.0 mph11.3 kmh 30.12 in1020.0 mb 0.00 in0.0 mm 0.00 in0.0 mm 0.31 in7.9 mm
03:00 PM 78.1°F25.6°C 67.9°F19.9°C 71% 6.0 mph E9.7 kmh E 7.0 mph11.3 kmh 30.12 in1020.0 mb 0.00 in0.0 mm 0.00 in0.0 mm 0.31 in7.9 mm
02:55 PM 78.1°F25.6°C 68.8°F20.4°C 73% 2.0 mph ENE3.2 kmh ENE 7.0 mph11.3 kmh 30.12 in1020.0 mb 0.00 in0.0 mm 0.00 in0.0 mm 0.31 in7.9 mm
02:50 PM 78.2°F25.7°C 68.4°F20.2°C 72% 2.0 mph N3.2 kmh N 7.0 mph11.3 kmh 30.12 in1020.0 mb 0.00 in0.0 mm 0.00 in0.0 mm 0.31 in7.9 mm
02:45 PM 78.7°F25.9°C 68.5°F20.3°C 71% 2.0 mph NNE3.2 kmh NNE 7.0 mph11.3 kmh 30.12 in1020.0 mb 0.00 in0.0 mm 0.00 in0.0 mm 0.31 in7.9 mm
02:40 PM 78.2°F25.7°C 68.8°F20.4°C 73% Calm Calm 7.0 mph11.3 kmh 30.13 in1020.3 mb 0.00 in0.0 mm 0.00 in0.0 mm 0.31 in7.9 mm
02:35 PM 77.4°F25.2°C 67.3°F19.6°C 71% 2.0 mph NNE3.2 kmh NNE 7.0 mph11.3 kmh 30.12 in1020.0 mb 0.00 in0.0 mm 0.00 in0.0 mm 0.31 in7.9 mm
02:30 PM 77.0°F25.0°C 68.1°F20.1°C 74% 2.0 mph N3.2 kmh N 4.0 mph6.4 kmh 30.13 in1020.3 mb 0.00 in0.0 mm 0.00 in0.0 mm 0.31 in7.9 mm
02:25 PM 76.7°F24.8°C 68.6°F20.3°C 76% 5.0 mph N8.0 kmh N 7.0 mph11.3 kmh 30.13 in1020.3 mb 0.00 in0.0 mm 0.00 in0.0 mm 0.31 in7.9 mm
02:20 PM 76.7°F24.8°C 68.2°F20.1°C 75% 3.0 mph N4.8 kmh N 7.0 mph11.3 kmh 30.13 in1020.3 mb 0.00 in0.0 mm 0.00 in0.0 mm 0.31 in7.9 mm
02:15 PM 76.8°F24.9°C 68.7°F20.4°C 76% 1.0 mph NE1.6 kmh NE 7.0 mph11.3 kmh 30.13 in1020.3 mb 0.00 in0.0 mm 0.00 in0.0 mm 0.31 in7.9 mm
02:10 PM 76.4°F24.7°C 69.4°F20.8°C 79% Calm Calm 7.0 mph11.3 kmh 30.13 in1020.3 mb 0.00 in0.0 mm 0.00 in0.0 mm 0.31 in7.9 mm
02:05 PM 76.1°F24.5°C 68.8°F20.4°C 78% 1.0 mph N1.6 kmh N 7.0 mph11.3 kmh 30.13 in1020.3 mb 0.00 in0.0 mm 0.00 in0.0 mm 0.31 in7.9 mm
02:00 PM 76.6°F24.8°C 69.6°F20.9°C 79% 5.0 mph NNW8.0 kmh NNW 5.0 mph8.0 kmh 30.13 in1020.3 mb 0.00 in0.0 mm 0.00 in0.0 mm 0.31 in7.9 mm
01:55 PM 76.6°F24.8°C 70.0°F21.1°C 80% 2.0 mph WNW3.2 kmh WNW 5.0 mph8.0 kmh 30.13 in1020.3 mb 0.00 in0.0 mm 0.00 in0.0 mm 0.31 in7.9 mm
01:50 PM 76.1°F24.5°C 69.9°F21.1°C 81% 3.0 mph NW4.8 kmh NW 5.0 mph8.0 kmh 30.13 in1020.3 mb 0.00 in0.0 mm 0.00 in0.0 mm 0.31 in7.9 mm
01:45 PM 75.9°F24.4°C 69.7°F20.9°C 81% 2.0 mph WNW3.2 kmh WNW 5.0 mph8.0 kmh 30.13 in1020.3 mb 0.00 in0.0 mm 0.00 in0.0 mm 0.31 in7.9 mm
01:40 PM 75.9°F24.4°C 69.3°F20.7°C 80% Calm Calm 5.0 mph8.0 kmh 30.13 in1020.3 mb 0.00 in0.0 mm 0.00 in0.0 mm 0.31 in7.9 mm
01:35 PM 75.4°F24.1°C 69.2°F20.7°C 81% Calm Calm 5.0 mph8.0 kmh 30.13 in1020.3 mb 0.00 in0.0 mm 0.00 in0.0 mm 0.31 in7.9 mm
01:30 PM 75.2°F24.0°C 69.3°F20.7°C 82% Calm Calm 3.0 mph4.8 kmh 30.14 in1020.7 mb 0.00 in0.0 mm 0.00 in0.0 mm 0.31 in7.9 mm
01:25 PM 74.9°F23.8°C 68.7°F20.4°C 81% 3.0 mph NW4.8 kmh NW 6.0 mph9.7 kmh 30.14 in1020.7 mb 0.00 in0.0 mm 0.00 in0.0 mm 0.31 in7.9 mm
01:20 PM 75.2°F24.0°C 69.3°F20.7°C 82% 2.0 mph WSW3.2 kmh WSW 6.0 mph9.7 kmh 30.14 in1020.7 mb 0.00 in0.0 mm 0.00 in0.0 mm 0.31 in7.9 mm
01:15 PM 75.0°F23.9°C 69.1°F20.6°C 82% Calm Calm 6.0 mph9.7 kmh 30.14 in1020.7 mb 0.00 in0.0 mm 0.00 in0.0 mm 0.31 in7.9 mm
01:10 PM 75.0°F23.9°C 69.8°F21.0°C 84% 2.0 mph W3.2 kmh W 4.0 mph6.4 kmh 30.15 in1021.0 mb 0.00 in0.0 mm 0.00 in0.0 mm 0.31 in7.9 mm
01:05 PM 74.0°F23.3°C 69.2°F20.7°C 85% 2.0 mph NW3.2 kmh NW 4.0 mph6.4 kmh 30.15 in1021.0 mb 0.00 in0.0 mm 0.00 in0.0 mm 0.31 in7.9 mm
01:00 PM 73.7°F23.2°C 68.6°F20.3°C 84% 2.0 mph N3.2 kmh N 4.0 mph6.4 kmh 30.15 in1021.0 mb 0.00 in0.0 mm 0.00 in0.0 mm 0.31 in7.9 mm
12:55 PM 73.8°F23.2°C 69.0°F20.6°C 85% 3.0 mph NNW4.8 kmh NNW 4.0 mph6.4 kmh 30.15 in1021.0 mb 0.00 in0.0 mm 0.00 in0.0 mm 0.31 in7.9 mm
12:50 PM 73.2°F22.9°C 68.4°F20.2°C 85% 3.0 mph NW4.8 kmh NW 4.0 mph6.4 kmh 30.15 in1021.0 mb 0.00 in0.0 mm 0.00 in0.0 mm 0.31 in7.9 mm
12:45 PM 72.9°F22.7°C 68.5°F20.3°C 86% Calm Calm 4.0 mph6.4 kmh 30.15 in1021.0 mb 0.00 in0.0 mm 0.00 in0.0 mm 0.31 in7.9 mm
12:40 PM 72.5°F22.5°C 68.1°F20.1°C 86% 2.0 mph WNW3.2 kmh WNW 4.0 mph6.4 kmh 30.16 in1021.3 mb 0.00 in0.0 mm 0.00 in0.0 mm 0.31 in7.9 mm
12:35 PM 72.3°F22.4°C 67.9°F19.9°C 86% 2.0 mph NW3.2 kmh NW 3.0 mph4.8 kmh 30.16 in1021.3 mb 0.00 in0.0 mm 0.00 in0.0 mm 0.31 in7.9 mm
12:30 PM 72.0°F22.2°C 67.9°F19.9°C 87% Calm Calm 1.0 mph1.6 kmh 30.16 in1021.3 mb 0.00 in0.0 mm 0.00 in0.0 mm 0.31 in7.9 mm
12:25 PM 72.0°F22.2°C 67.6°F19.8°C 86% 2.0 mph N3.2 kmh N 4.0 mph6.4 kmh 30.16 in1021.3 mb 0.00 in0.0 mm 0.00 in0.0 mm 0.31 in7.9 mm
12:20 PM 71.9°F22.2°C 67.5°F19.7°C 86% 1.0 mph NW1.6 kmh NW 4.0 mph6.4 kmh 30.16 in1021.3 mb 0.00 in0.0 mm 0.00 in0.0 mm 0.31 in7.9 mm
12:15 PM 72.0°F22.2°C 67.6°F19.8°C 86% Calm Calm 4.0 mph6.4 kmh 30.16 in1021.3 mb 0.00 in0.0 mm 0.00 in0.0 mm 0.31 in7.9 mm
12:10 PM 72.1°F22.3°C 67.7°F19.8°C 86% Calm Calm 4.0 mph6.4 kmh 30.16 in1021.3 mb 0.00 in0.0 mm 0.00 in0.0 mm 0.31 in7.9 mm
12:05 PM 72.3°F22.4°C 67.9°F19.9°C 86% 1.0 mph NW1.6 kmh NW 3.0 mph4.8 kmh 30.16 in1021.3 mb 0.00 in0.0 mm 0.00 in0.0 mm 0.31 in7.9 mm
12:00 PM 72.5°F22.5°C 68.1°F20.1°C 86% Calm Calm 2.0 mph3.2 kmh 30.16 in1021.3 mb 0.00 in0.0 mm 0.00 in0.0 mm 0.31 in7.9 mm
11:55 AM 72.5°F22.5°C 68.1°F20.1°C 86% 1.0 mph NW1.6 kmh NW 5.0 mph8.0 kmh 30.16 in1021.3 mb 0.00 in0.0 mm 0.00 in0.0 mm 0.31 in7.9 mm
11:50 AM 72.4°F22.4°C 67.6°F19.8°C 85% 2.0 mph NNE3.2 kmh NNE 5.0 mph8.0 kmh 30.15 in1021.0 mb 0.00 in0.0 mm 0.00 in0.0 mm 0.31 in7.9 mm
11:45 AM 72.5°F22.5°C 68.1°F20.1°C 86% 1.0 mph N1.6 kmh N 5.0 mph8.0 kmh 30.15 in1021.0 mb 0.00 in0.0 mm 0.00 in0.0 mm 0.31 in7.9 mm
11:40 AM 72.1°F22.3°C 67.7°F19.8°C 86% 1.0 mph NW1.6 kmh NW 4.0 mph6.4 kmh 30.16 in1021.3 mb 0.00 in0.0 mm 0.00 in0.0 mm 0.31 in7.9 mm
11:35 AM 71.9°F22.2°C 67.5°F19.7°C 86% 1.0 mph NNE1.6 kmh NNE 4.0 mph6.4 kmh 30.16 in1021.3 mb 0.00 in0.0 mm 0.00 in0.0 mm 0.31 in7.9 mm
11:30 AM 72.0°F22.2°C 67.6°F19.8°C 86% Calm Calm 3.0 mph4.8 kmh 30.16 in1021.3 mb 0.00 in0.0 mm 0.00 in0.0 mm 0.31 in7.9 mm
11:25 AM 72.1°F22.3°C 67.4°F19.7°C 85% 2.0 mph NW3.2 kmh NW 6.0 mph9.7 kmh 30.16 in1021.3 mb 0.00 in0.0 mm 0.00 in0.0 mm 0.31 in7.9 mm
11:20 AM 72.3°F22.4°C 67.9°F19.9°C 86% 2.0 mph NW3.2 kmh NW 6.0 mph9.7 kmh 30.16 in1021.3 mb 0.00 in0.0 mm 0.00 in0.0 mm 0.31 in7.9 mm
11:15 AM 72.1°F22.3°C 68.0°F20.0°C 87% 3.0 mph N4.8 kmh N 4.0 mph6.4 kmh 30.16 in1021.3 mb 0.00 in0.0 mm 0.00 in0.0 mm 0.31 in7.9 mm
11:10 AM 71.7°F22.1°C 67.3°F19.6°C 86% Calm Calm 3.0 mph4.8 kmh 30.16 in1021.3 mb 0.00 in0.0 mm 0.00 in0.0 mm 0.31 in7.9 mm
11:05 AM 71.5°F21.9°C 67.1°F19.5°C 86% 1.0 mph NW1.6 kmh NW 3.0 mph4.8 kmh 30.16 in1021.3 mb 0.00 in0.0 mm 0.00 in0.0 mm 0.31 in7.9 mm
11:00 AM 71.6°F22.0°C 67.5°F19.7°C 87% Calm Calm 2.0 mph3.2 kmh 30.16 in1021.3 mb 0.00 in0.0 mm 0.00 in0.0 mm 0.31 in7.9 mm
10:55 AM 71.5°F21.9°C 67.1°F19.5°C 86% 1.0 mph NNE1.6 kmh NNE 4.0 mph6.4 kmh 30.16 in1021.3 mb 0.00 in0.0 mm 0.00 in0.0 mm 0.31 in7.9 mm
10:50 AM 71.4°F21.9°C 67.3°F19.6°C 87% Calm Calm 4.0 mph6.4 kmh 30.16 in1021.3 mb 0.00 in0.0 mm 0.00 in0.0 mm 0.31 in7.9 mm
10:45 AM 71.4°F21.9°C 67.0°F19.4°C 86% 4.0 mph N6.4 kmh N 4.0 mph6.4 kmh 30.15 in1021.0 mb 0.00 in0.0 mm 0.00 in0.0 mm 0.31 in7.9 mm
10:40 AM 71.5°F21.9°C 67.4°F19.7°C 87% Calm Calm 3.0 mph4.8 kmh 30.15 in1021.0 mb 0.00 in0.0 mm 0.00 in0.0 mm 0.31 in7.9 mm
10:35 AM 71.2°F21.8°C 67.1°F19.5°C 87% Calm Calm 3.0 mph4.8 kmh 30.15 in1021.0 mb 0.00 in0.0 mm 0.00 in0.0 mm 0.31 in7.9 mm
10:30 AM 71.0°F21.7°C 66.9°F19.4°C 87% 2.0 mph W3.2 kmh W 3.0 mph4.8 kmh 30.15 in1021.0 mb 0.00 in0.0 mm 0.00 in0.0 mm 0.31 in7.9 mm
10:25 AM 70.6°F21.4°C 66.6°F19.2°C 87% 2.0 mph N3.2 kmh N 5.0 mph8.0 kmh 30.15 in1021.0 mb 0.00 in0.0 mm 0.00 in0.0 mm 0.31 in7.9 mm
10:20 AM 70.3°F21.3°C 66.6°F19.2°C 88% 3.0 mph NW4.8 kmh NW 5.0 mph8.0 kmh 30.15 in1021.0 mb 0.00 in0.0 mm 0.00 in0.0 mm 0.31 in7.9 mm
10:15 AM 70.1°F21.2°C 66.4°F19.1°C 88% Calm Calm 5.0 mph8.0 kmh 30.15 in1021.0 mb 0.00 in0.0 mm 0.00 in0.0 mm 0.31 in7.9 mm
10:10 AM 69.8°F21.0°C 66.4°F19.1°C 89% Calm Calm 5.0 mph8.0 kmh 30.15 in1021.0 mb 0.00 in0.0 mm 0.00 in0.0 mm 0.31 in7.9 mm
10:05 AM 69.3°F20.7°C 65.9°F18.8°C 89% Calm Calm 5.0 mph8.0 kmh 30.15 in1021.0 mb 0.00 in0.0 mm 0.00 in0.0 mm 0.31 in7.9 mm
10:00 AM 68.9°F20.5°C 65.5°F18.6°C 89% 1.0 mph NNW1.6 kmh NNW 3.0 mph4.8 kmh 30.15 in1021.0 mb 0.00 in0.0 mm 0.00 in0.0 mm 0.31 in7.9 mm
09:55 AM 68.5°F20.3°C 65.5°F18.6°C 90% Calm Calm 6.0 mph9.7 kmh 30.15 in1021.0 mb 0.00 in0.0 mm 0.00 in0.0 mm 0.31 in7.9 mm
09:50 AM 68.5°F20.3°C 65.5°F18.6°C 90% 1.0 mph N1.6 kmh N 6.0 mph9.7 kmh 30.15 in1021.0 mb 0.00 in0.0 mm 0.00 in0.0 mm 0.31 in7.9 mm
09:45 AM 68.1°F20.1°C 65.1°F18.4°C 90% Calm Calm 6.0 mph9.7 kmh 30.15 in1021.0 mb 0.00 in0.0 mm 0.00 in0.0 mm 0.31 in7.9 mm
09:40 AM 67.9°F19.9°C 64.9°F18.3°C 90% 1.0 mph NW1.6 kmh NW 6.0 mph9.7 kmh 30.14 in1020.7 mb 0.00 in0.0 mm 0.00 in0.0 mm 0.31 in7.9 mm
09:35 AM 67.7°F19.8°C 64.7°F18.2°C 90% 2.0 mph N3.2 kmh N 6.0 mph9.7 kmh 30.14 in1020.7 mb 0.00 in0.0 mm 0.00 in0.0 mm 0.31 in7.9 mm
09:30 AM 67.6°F19.8°C 64.6°F18.1°C 90% 2.0 mph ENE3.2 kmh ENE 6.0 mph9.7 kmh 30.14 in1020.7 mb 0.00 in0.0 mm 0.00 in0.0 mm 0.31 in7.9 mm
09:25 AM 67.5°F19.7°C 64.5°F18.1°C 90% Calm Calm 8.0 mph12.9 kmh 30.14 in1020.7 mb 0.00 in0.0 mm 0.00 in0.0 mm 0.31 in7.9 mm
09:20 AM 67.6°F19.8°C 64.6°F18.1°C 90% 4.0 mph N6.4 kmh N 8.0 mph12.9 kmh 30.13 in1020.3 mb 0.00 in0.0 mm 0.00 in0.0 mm 0.31 in7.9 mm
09:15 AM 67.2°F19.6°C 64.2°F17.9°C 90% Calm Calm 8.0 mph12.9 kmh 30.13 in1020.3 mb 0.00 in0.0 mm 0.00 in0.0 mm 0.31 in7.9 mm
09:10 AM 67.0°F19.4°C 64.0°F17.8°C 90% 4.0 mph N6.4 kmh N 8.0 mph12.9 kmh 30.13 in1020.3 mb 0.00 in0.0 mm 0.00 in0.0 mm 0.31 in7.9 mm
09:05 AM 66.9°F19.4°C 63.9°F17.7°C 90% 2.0 mph NNW3.2 kmh NNW 8.0 mph12.9 kmh 30.13 in1020.3 mb 0.00 in0.0 mm 0.00 in0.0 mm 0.31 in7.9 mm
09:00 AM 67.0°F19.4°C 64.0°F17.8°C 90% 4.0 mph N6.4 kmh N 6.0 mph9.7 kmh 30.12 in1020.0 mb 0.00 in0.0 mm 0.00 in0.0 mm 0.31 in7.9 mm
08:55 AM 67.1°F19.5°C 64.4°F18.0°C 91% 4.0 mph N6.4 kmh N 10.0 mph16.1 kmh 30.12 in1020.0 mb 0.00 in0.0 mm 0.00 in0.0 mm 0.31 in7.9 mm
08:50 AM 66.8°F19.3°C 63.8°F17.7°C 90% 5.0 mph E8.0 kmh E 10.0 mph16.1 kmh 30.12 in1020.0 mb 0.00 in0.0 mm 0.00 in0.0 mm 0.31 in7.9 mm
08:45 AM 66.7°F19.3°C 63.7°F17.6°C 90% Calm Calm 10.0 mph16.1 kmh 30.12 in1020.0 mb 0.00 in0.0 mm 0.00 in0.0 mm 0.31 in7.9 mm
08:40 AM 66.6°F19.2°C 63.6°F17.6°C 90% 4.0 mph NNE6.4 kmh NNE 10.0 mph16.1 kmh 30.12 in1020.0 mb 0.00 in0.0 mm 0.00 in0.0 mm 0.31 in7.9 mm
08:35 AM 66.6°F19.2°C 63.9°F17.7°C 91% 6.0 mph N9.7 kmh N 10.0 mph16.1 kmh 30.12 in1020.0 mb 0.00 in0.0 mm 0.00 in0.0 mm 0.31 in7.9 mm
08:30 AM 66.6°F19.2°C 63.9°F17.7°C 91% 3.0 mph NE4.8 kmh NE 8.0 mph12.9 kmh 30.11 in1019.6 mb 0.00 in0.0 mm 0.00 in0.0 mm 0.31 in7.9 mm
08:25 AM 66.6°F19.2°C 63.9°F17.7°C 91% Calm Calm 9.0 mph14.5 kmh 30.11 in1019.6 mb 0.00 in0.0 mm 0.00 in0.0 mm 0.31 in7.9 mm
08:20 AM 66.6°F19.2°C 63.9°F17.7°C 91% 4.0 mph NE6.4 kmh NE 9.0 mph14.5 kmh 30.11 in1019.6 mb 0.00 in0.0 mm 0.00 in0.0 mm 0.31 in7.9 mm
08:15 AM 66.5°F19.2°C 63.8°F17.7°C 91% 2.0 mph N3.2 kmh N 9.0 mph14.5 kmh 30.11 in1019.6 mb 0.00 in0.0 mm 0.00 in0.0 mm 0.31 in7.9 mm
08:10 AM 66.6°F19.2°C 63.9°F17.7°C 91% 3.0 mph N4.8 kmh N 9.0 mph14.5 kmh 30.11 in1019.6 mb 0.00 in0.0 mm 0.00 in0.0 mm 0.31 in7.9 mm
08:05 AM 66.5°F19.2°C 63.8°F17.7°C 91% 5.0 mph N8.0 kmh N 8.0 mph12.9 kmh 30.11 in1019.6 mb 0.00 in0.0 mm 0.00 in0.0 mm 0.31 in7.9 mm
08:00 AM 66.5°F19.2°C 63.8°F17.7°C 91% 3.0 mph N4.8 kmh N 6.0 mph9.7 kmh 30.10 in1019.3 mb 0.00 in0.0 mm 0.00 in0.0 mm 0.31 in7.9 mm
07:55 AM 66.3°F19.1°C 63.6°F17.6°C 91% 2.0 mph NNW3.2 kmh NNW 5.0 mph8.0 kmh 30.09 in1019.0 mb 0.00 in0.0 mm 0.00 in0.0 mm 0.31 in7.9 mm
07:50 AM 66.3°F19.1°C 63.6°F17.6°C 91% 1.0 mph NW1.6 kmh NW 3.0 mph4.8 kmh 30.10 in1019.3 mb 0.00 in0.0 mm 0.00 in0.0 mm 0.31 in7.9 mm
07:45 AM 66.2°F19.0°C 63.2°F17.3°C 90% 1.0 mph NNW1.6 kmh NNW 3.0 mph4.8 kmh 30.10 in1019.3 mb 0.00 in0.0 mm 0.00 in0.0 mm 0.31 in7.9 mm
07:40 AM 66.1°F18.9°C 63.1°F17.3°C 90% Calm Calm -- 30.10 in1019.3 mb 0.00 in0.0 mm 0.00 in0.0 mm 0.31 in7.9 mm
07:35 AM 66.0°F18.9°C 63.0°F17.2°C 90% Calm Calm -- 30.09 in1019.0 mb 0.00 in0.0 mm 0.00 in0.0 mm 0.31 in7.9 mm
07:30 AM 66.0°F18.9°C 63.0°F17.2°C 90% Calm Calm -- 30.09 in1019.0 mb 0.00 in0.0 mm 0.00 in0.0 mm 0.31 in7.9 mm
07:25 AM 65.9°F18.8°C 62.9°F17.2°C 90% Calm Calm -- 30.09 in1019.0 mb 0.00 in0.0 mm 0.00 in0.0 mm 0.31 in7.9 mm
07:20 AM 65.8°F18.8°C 63.1°F17.3°C 91% Calm Calm -- 30.09 in1019.0 mb 0.00 in0.0 mm 0.00 in0.0 mm 0.31 in7.9 mm
07:15 AM 65.7°F18.7°C 62.7°F17.1°C 90% Calm Calm -- 30.09 in1019.0 mb 0.00 in0.0 mm 0.00 in0.0 mm 0.31 in7.9 mm
07:10 AM 65.7°F18.7°C 62.7°F17.1°C 90% Calm Calm -- 30.08 in1018.6 mb 0.00 in0.0 mm 0.00 in0.0 mm 0.31 in7.9 mm
07:05 AM 65.5°F18.6°C 62.5°F16.9°C 90% Calm Calm -- 30.08 in1018.6 mb 0.00 in0.0 mm 0.00 in0.0 mm 0.31 in7.9 mm
07:00 AM 65.5°F18.6°C 62.5°F16.9°C 90% Calm Calm -- 30.08 in1018.6 mb 0.00 in0.0 mm 0.00 in0.0 mm 0.31 in7.9 mm
06:55 AM 65.5°F18.6°C 62.5°F16.9°C 90% Calm Calm 3.0 mph4.8 kmh 30.07 in1018.3 mb 0.00 in0.0 mm 0.00 in0.0 mm 0.31 in7.9 mm
06:50 AM 65.5°F18.6°C 62.5°F16.9°C 90% 3.0 mph WSW4.8 kmh WSW 3.0 mph4.8 kmh 30.08 in1018.6 mb 0.00 in0.0 mm 0.00 in0.0 mm 0.31 in7.9 mm
06:45 AM 65.5°F18.6°C 62.5°F16.9°C 90% Calm Calm 3.0 mph4.8 kmh 30.08 in1018.6 mb 0.00 in0.0 mm 0.00 in0.0 mm 0.31 in7.9 mm
06:40 AM 65.6°F18.7°C 62.6°F17.0°C 90% Calm Calm 3.0 mph4.8 kmh 30.08 in1018.6 mb 0.00 in0.0 mm 0.00 in0.0 mm 0.31 in7.9 mm
06:35 AM 65.6°F18.7°C 62.6°F17.0°C 90% 1.0 mph SW1.6 kmh SW 1.0 mph1.6 kmh 30.08 in1018.6 mb 0.00 in0.0 mm 0.00 in0.0 mm 0.31 in7.9 mm
06:30 AM 65.6°F18.7°C 62.6°F17.0°C 90% Calm Calm -- 30.08 in1018.6 mb 0.00 in0.0 mm 0.00 in0.0 mm 0.31 in7.9 mm
06:25 AM 65.6°F18.7°C 62.6°F17.0°C 90% Calm Calm 3.0 mph4.8 kmh 30.08 in1018.6 mb 0.02 in0.5 mm 0.00 in0.0 mm 0.31 in7.9 mm
06:20 AM 65.7°F18.7°C 62.7°F17.1°C 90% Calm Calm 3.0 mph4.8 kmh 30.08 in1018.6 mb 0.02 in0.5 mm 0.00 in0.0 mm 0.31 in7.9 mm
06:15 AM 65.7°F18.7°C 62.7°F17.1°C 90% Calm Calm 3.0 mph4.8 kmh 30.08 in1018.6 mb 0.02 in0.5 mm 0.00 in0.0 mm 0.31 in7.9 mm
06:10 AM 65.7°F18.7°C 62.7°F17.1°C 90% Calm Calm 3.0 mph4.8 kmh 30.08 in1018.6 mb 0.02 in0.5 mm 0.00 in0.0 mm 0.31 in7.9 mm
06:05 AM 65.6°F18.7°C 62.6°F17.0°C 90% 1.0 mph SSE1.6 kmh SSE 3.0 mph4.8 kmh 30.08 in1018.6 mb 0.02 in0.5 mm 0.00 in0.0 mm 0.31 in7.9 mm
06:00 AM 65.7°F18.7°C 62.7°F17.1°C 90% 1.0 mph SE1.6 kmh SE 3.0 mph4.8 kmh 30.07 in1018.3 mb 0.02 in0.5 mm 0.00 in0.0 mm 0.31 in7.9 mm
05:55 AM 65.8°F18.8°C 62.8°F17.1°C 90% 1.0 mph S1.6 kmh S 8.0 mph12.9 kmh 30.07 in1018.3 mb 0.03 in0.8 mm 0.00 in0.0 mm 0.31 in7.9 mm
05:50 AM 65.9°F18.8°C 62.9°F17.2°C 90% 1.0 mph S1.6 kmh S 8.0 mph12.9 kmh 30.08 in1018.6 mb 0.03 in0.8 mm 0.00 in0.0 mm 0.31 in7.9 mm
05:45 AM 65.9°F18.8°C 62.9°F17.2°C 90% 2.0 mph S3.2 kmh S 8.0 mph12.9 kmh 30.08 in1018.6 mb 0.03 in0.8 mm 0.00 in0.0 mm 0.31 in7.9 mm
05:40 AM 66.0°F18.9°C 63.0°F17.2°C 90% 2.0 mph SE3.2 kmh SE 8.0 mph12.9 kmh 30.09 in1019.0 mb 0.03 in0.8 mm 0.00 in0.0 mm 0.31 in7.9 mm
05:35 AM 66.0°F18.9°C 63.0°F17.2°C 90% 5.0 mph S8.0 kmh S 6.0 mph9.7 kmh 30.09 in1019.0 mb 0.03 in0.8 mm 0.00 in0.0 mm 0.31 in7.9 mm
05:30 AM 66.0°F18.9°C 63.0°F17.2°C 90% 3.0 mph S4.8 kmh S 6.0 mph9.7 kmh 30.10 in1019.3 mb 0.03 in0.8 mm 0.00 in0.0 mm 0.31 in7.9 mm
05:25 AM 66.0°F18.9°C 63.0°F17.2°C 90% 4.0 mph SSE6.4 kmh SSE 7.0 mph11.3 kmh 30.11 in1019.6 mb 0.04 in1.0 mm 0.00 in0.0 mm 0.31 in7.9 mm
05:20 AM 66.1°F18.9°C 63.1°F17.3°C 90% 4.0 mph SE6.4 kmh SE 7.0 mph11.3 kmh 30.11 in1019.6 mb 0.04 in1.0 mm 0.00 in0.0 mm 0.31 in7.9 mm
05:15 AM 66.2°F19.0°C 63.2°F17.3°C 90% 2.0 mph E3.2 kmh E 7.0 mph11.3 kmh 30.12 in1020.0 mb 0.04 in1.0 mm 0.00 in0.0 mm 0.31 in7.9 mm
05:10 AM 66.3°F19.1°C 63.3°F17.4°C 90% 4.0 mph ENE6.4 kmh ENE 7.0 mph11.3 kmh 30.11 in1019.6 mb 0.04 in1.0 mm 0.12 in3.0 mm 0.31 in7.9 mm
05:05 AM 66.4°F19.1°C 63.4°F17.4°C 90% 2.0 mph SE3.2 kmh SE 7.0 mph11.3 kmh 30.12 in1020.0 mb 0.03 in0.8 mm 0.00 in0.0 mm 0.30 in7.6 mm
05:00 AM 66.4°F19.1°C 63.4°F17.4°C 90% 1.0 mph SE1.6 kmh SE 3.0 mph4.8 kmh 30.14 in1020.7 mb 0.03 in0.8 mm 0.00 in0.0 mm 0.30 in7.6 mm
04:55 AM 66.5°F19.2°C 63.5°F17.5°C 90% Calm Calm 7.0 mph11.3 kmh 30.15 in1021.0 mb 0.10 in2.5 mm 0.00 in0.0 mm 0.30 in7.6 mm
04:50 AM 66.6°F19.2°C 63.6°F17.6°C 90% 1.0 mph SSE1.6 kmh SSE 7.0 mph11.3 kmh 30.15 in1021.0 mb 0.10 in2.5 mm 0.00 in0.0 mm 0.30 in7.6 mm
04:45 AM 66.6°F19.2°C 63.6°F17.6°C 90% 2.0 mph SE3.2 kmh SE 7.0 mph11.3 kmh 30.16 in1021.3 mb 0.10 in2.5 mm 0.00 in0.0 mm 0.30 in7.6 mm
04:40 AM 66.6°F19.2°C 63.6°F17.6°C 90% Calm Calm 7.0 mph11.3 kmh 30.16 in1021.3 mb 0.10 in2.5 mm 0.00 in0.0 mm 0.30 in7.6 mm
04:35 AM 66.7°F19.3°C 63.7°F17.6°C 90% Calm Calm 7.0 mph11.3 kmh 30.16 in1021.3 mb 0.10 in2.5 mm 0.00 in0.0 mm 0.30 in7.6 mm
04:30 AM 66.8°F19.3°C 63.8°F17.7°C 90% 1.0 mph NNE1.6 kmh NNE 7.0 mph11.3 kmh 30.17 in1021.7 mb 0.10 in2.5 mm 0.00 in0.0 mm 0.30 in7.6 mm
04:25 AM 66.9°F19.4°C 63.9°F17.7°C 90% 5.0 mph NNW8.0 kmh NNW 9.0 mph14.5 kmh 30.18 in1022.0 mb 0.23 in5.8 mm 0.12 in3.0 mm 0.30 in7.6 mm
04:20 AM 66.9°F19.4°C 63.9°F17.7°C 90% 3.0 mph NNW4.8 kmh NNW 7.0 mph11.3 kmh 30.17 in1021.7 mb 0.22 in5.6 mm 0.00 in0.0 mm 0.29 in7.4 mm
04:15 AM 66.8°F19.3°C 63.8°F17.7°C 90% 1.0 mph NE1.6 kmh NE 7.0 mph11.3 kmh 30.17 in1021.7 mb 0.22 in5.6 mm 0.00 in0.0 mm 0.29 in7.4 mm
04:10 AM 66.8°F19.3°C 63.8°F17.7°C 90% 1.0 mph ESE1.6 kmh ESE 7.0 mph11.3 kmh 30.16 in1021.3 mb 0.22 in5.6 mm 0.00 in0.0 mm 0.29 in7.4 mm
04:05 AM 66.8°F19.3°C 63.8°F17.7°C 90% Calm Calm 7.0 mph11.3 kmh 30.15 in1021.0 mb 0.22 in5.6 mm 0.00 in0.0 mm 0.29 in7.4 mm
04:00 AM 66.9°F19.4°C 63.9°F17.7°C 90% Calm Calm 7.0 mph11.3 kmh 30.14 in1020.7 mb 0.22 in5.6 mm 0.00 in0.0 mm 0.29 in7.4 mm
03:55 AM 67.0°F19.4°C 64.0°F17.8°C 90% 2.0 mph SE3.2 kmh SE 13.0 mph20.9 kmh 30.14 in1020.7 mb 0.29 in7.4 mm 0.00 in0.0 mm 0.29 in7.4 mm
03:50 AM 67.1°F19.5°C 64.1°F17.8°C 90% 3.0 mph E4.8 kmh E 13.0 mph20.9 kmh 30.15 in1021.0 mb 0.29 in7.4 mm 0.12 in3.0 mm 0.29 in7.4 mm
03:45 AM 67.2°F19.6°C 64.2°F17.9°C 90% 6.0 mph E9.7 kmh E 13.0 mph20.9 kmh 30.14 in1020.7 mb 0.28 in7.1 mm 0.24 in6.1 mm 0.28 in7.1 mm
03:40 AM 67.3°F19.6°C 64.3°F17.9°C 90% 5.0 mph E8.0 kmh E 13.0 mph20.9 kmh 30.14 in1020.7 mb 0.26 in6.6 mm 0.12 in3.0 mm 0.26 in6.6 mm
03:35 AM 67.5°F19.7°C 64.5°F18.1°C 90% 3.0 mph E4.8 kmh E 11.0 mph17.7 kmh 30.15 in1021.0 mb 0.25 in6.4 mm 0.36 in9.1 mm 0.25 in6.4 mm
03:30 AM 67.6°F19.8°C 64.6°F18.1°C 90% 5.0 mph E8.0 kmh E 8.0 mph12.9 kmh 30.16 in1021.3 mb 0.22 in5.6 mm 0.24 in6.1 mm 0.22 in5.6 mm
03:25 AM 67.7°F19.8°C 64.7°F18.2°C 90% 1.0 mph ESE1.6 kmh ESE 13.0 mph20.9 kmh 30.16 in1021.3 mb 0.20 in5.1 mm 0.24 in6.1 mm 0.20 in5.1 mm
03:20 AM 67.9°F19.9°C 64.9°F18.3°C 90% 8.0 mph E12.9 kmh E 13.0 mph20.9 kmh 30.16 in1021.3 mb 0.18 in4.6 mm 0.00 in0.0 mm 0.18 in4.6 mm
03:15 AM 68.1°F20.1°C 64.7°F18.2°C 89% 5.0 mph ESE8.0 kmh ESE 13.0 mph20.9 kmh 30.16 in1021.3 mb 0.18 in4.6 mm 0.00 in0.0 mm 0.18 in4.6 mm
03:10 AM 68.4°F20.2°C 65.0°F18.3°C 89% 2.0 mph ESE3.2 kmh ESE 13.0 mph20.9 kmh 30.16 in1021.3 mb 0.18 in4.6 mm 0.12 in3.0 mm 0.18 in4.6 mm
03:05 AM 68.8°F20.4°C 65.4°F18.6°C 89% 3.0 mph E4.8 kmh E 13.0 mph20.9 kmh 30.15 in1021.0 mb 0.17 in4.3 mm 0.48 in12.2 mm 0.17 in4.3 mm
03:00 AM 69.3°F20.7°C 65.9°F18.8°C 89% 3.0 mph NNE4.8 kmh NNE 13.0 mph20.9 kmh 30.15 in1021.0 mb 0.13 in3.3 mm 0.08 in2.0 mm 0.13 in3.3 mm
02:55 AM 69.9°F21.1°C 66.5°F19.2°C 89% 6.0 mph SE9.7 kmh SE 19.0 mph30.6 kmh 30.14 in1020.7 mb 0.06 in1.5 mm 0.72 in18.3 mm 0.06 in1.5 mm
02:50 AM 70.1°F21.2°C 66.7°F19.3°C 89% 4.0 mph ENE6.4 kmh ENE 19.0 mph30.6 kmh 30.15 in1021.0 mb 0.00 in0.0 mm 0.00 in0.0 mm 0.00 in0.0 mm
02:45 AM 70.0°F21.1°C 66.6°F19.2°C 89% 10.0 mph E16.1 kmh E 19.0 mph30.6 kmh 30.14 in1020.7 mb 0.00 in0.0 mm 0.00 in0.0 mm 0.00 in0.0 mm
02:40 AM 70.3°F21.3°C 67.2°F19.6°C 90% 4.0 mph NE6.4 kmh NE 11.0 mph17.7 kmh 30.14 in1020.7 mb 0.00 in0.0 mm 0.00 in0.0 mm 0.00 in0.0 mm
02:35 AM 70.4°F21.3°C 67.3°F19.6°C 90% 1.0 mph N1.6 kmh N 11.0 mph17.7 kmh 30.14 in1020.7 mb 0.00 in0.0 mm 0.00 in0.0 mm 0.00 in0.0 mm
02:30 AM 70.3°F21.3°C 67.2°F19.6°C 90% 8.0 mph E12.9 kmh E 11.0 mph17.7 kmh 30.13 in1020.3 mb 0.00 in0.0 mm 0.00 in0.0 mm 0.00 in0.0 mm
02:25 AM 70.1°F21.2°C 67.0°F19.4°C 90% 4.0 mph NE6.4 kmh NE 8.0 mph12.9 kmh 30.13 in1020.3 mb 0.00 in0.0 mm 0.00 in0.0 mm 0.00 in0.0 mm
02:20 AM 70.1°F21.2°C 67.0°F19.4°C 90% 3.0 mph NE4.8 kmh NE 4.0 mph6.4 kmh 30.12 in1020.0 mb 0.00 in0.0 mm 0.00 in0.0 mm 0.00 in0.0 mm
02:15 AM 70.1°F21.2°C 67.0°F19.4°C 90% 2.0 mph SE3.2 kmh SE 2.0 mph3.2 kmh 30.12 in1020.0 mb 0.00 in0.0 mm 0.00 in0.0 mm 0.00 in0.0 mm
02:10 AM 70.0°F21.1°C 66.9°F19.4°C 90% Calm Calm -- 30.12 in1020.0 mb 0.00 in0.0 mm 0.00 in0.0 mm 0.00 in0.0 mm
02:05 AM 69.9°F21.1°C 66.8°F19.3°C 90% Calm Calm -- 30.11 in1019.6 mb 0.00 in0.0 mm 0.00 in0.0 mm 0.00 in0.0 mm
02:00 AM 69.9°F21.1°C 66.8°F19.3°C 90% Calm Calm -- 30.12 in1020.0 mb 0.00 in0.0 mm 0.00 in0.0 mm 0.00 in0.0 mm
01:55 AM 70.0°F21.1°C 66.9°F19.4°C 90% Calm Calm 3.0 mph4.8 kmh 30.12 in1020.0 mb 0.00 in0.0 mm 0.00 in0.0 mm 0.00 in0.0 mm
01:50 AM 69.9°F21.1°C 66.8°F19.3°C 90% Calm Calm 3.0 mph4.8 kmh 30.11 in1019.6 mb 0.00 in0.0 mm 0.00 in0.0 mm 0.00 in0.0 mm
01:45 AM 69.9°F21.1°C 66.8°F19.3°C 90% Calm Calm -- 30.11 in1019.6 mb 0.00 in0.0 mm 0.00 in0.0 mm 0.00 in0.0 mm
01:40 AM 70.0°F21.1°C 66.9°F19.4°C 90% Calm Calm -- 30.11 in1019.6 mb 0.00 in0.0 mm 0.00 in0.0 mm 0.00 in0.0 mm
01:35 AM 70.0°F21.1°C 66.9°F19.4°C 90% Calm Calm -- 30.11 in1019.6 mb 0.00 in0.0 mm 0.00 in0.0 mm 0.00 in0.0 mm
01:30 AM 70.1°F21.2°C 67.0°F19.4°C 90% Calm Calm -- 30.10 in1019.3 mb 0.00 in0.0 mm 0.00 in0.0 mm 0.00 in0.0 mm
01:25 AM 70.1°F21.2°C 67.0°F19.4°C 90% Calm Calm -- 30.10 in1019.3 mb 0.00 in0.0 mm 0.00 in0.0 mm 0.00 in0.0 mm
01:20 AM 70.2°F21.2°C 67.1°F19.5°C 90% Calm Calm -- 30.10 in1019.3 mb 0.00 in0.0 mm 0.00 in0.0 mm 0.00 in0.0 mm
01:15 AM 70.1°F21.2°C 67.0°F19.4°C 90% Calm Calm -- 30.10 in1019.3 mb 0.00 in0.0 mm 0.00 in0.0 mm 0.00 in0.0 mm
01:10 AM 70.1°F21.2°C 67.0°F19.4°C 90% Calm Calm -- 30.10 in1019.3 mb 0.00 in0.0 mm 0.00 in0.0 mm 0.00 in0.0 mm
01:05 AM 70.2°F21.2°C 67.1°F19.5°C 90% Calm Calm -- 30.09 in1019.0 mb 0.00 in0.0 mm 0.00 in0.0 mm 0.00 in0.0 mm
01:00 AM 70.3°F21.3°C 67.2°F19.6°C 90% Calm Calm -- 30.09 in1019.0 mb 0.00 in0.0 mm 0.00 in0.0 mm 0.00 in0.0 mm
12:55 AM 70.3°F21.3°C 66.9°F19.4°C 89% Calm Calm 4.0 mph6.4 kmh 30.09 in1019.0 mb 0.00 in0.0 mm 0.00 in0.0 mm 0.00 in0.0 mm
12:50 AM 70.4°F21.3°C 67.0°F19.4°C 89% Calm Calm 4.0 mph6.4 kmh 30.09 in1019.0 mb 0.00 in0.0 mm 0.00 in0.0 mm 0.00 in0.0 mm
12:45 AM 70.5°F21.4°C 67.4°F19.7°C 90% Calm Calm 4.0 mph6.4 kmh 30.09 in1019.0 mb 0.00 in0.0 mm 0.00 in0.0 mm 0.00 in0.0 mm
12:40 AM 70.4°F21.3°C 67.3°F19.6°C 90% Calm Calm 4.0 mph6.4 kmh 30.09 in1019.0 mb 0.00 in0.0 mm 0.00 in0.0 mm 0.00 in0.0 mm
12:35 AM 70.5°F21.4°C 67.4°F19.7°C 90% Calm Calm 4.0 mph6.4 kmh 30.09 in1019.0 mb 0.00 in0.0 mm 0.00 in0.0 mm 0.00 in0.0 mm
12:30 AM 70.5°F21.4°C 67.4°F19.7°C 90% Calm Calm 4.0 mph6.4 kmh 30.09 in1019.0 mb 0.00 in0.0 mm 0.00 in0.0 mm 0.00 in0.0 mm
12:25 AM 70.4°F21.3°C 67.0°F19.4°C 89% Calm Calm -- 30.09 in1019.0 mb 0.00 in0.0 mm 0.00 in0.0 mm 0.00 in0.0 mm
12:20 AM 70.4°F21.3°C 67.0°F19.4°C 89% Calm Calm -- 30.09 in1019.0 mb 0.00 in0.0 mm 0.00 in0.0 mm 0.00 in0.0 mm
12:15 AM 70.5°F21.4°C 67.4°F19.7°C 90% Calm Calm -- 30.08 in1018.6 mb 0.00 in0.0 mm 0.00 in0.0 mm 0.00 in0.0 mm
12:10 AM 70.5°F21.4°C 67.4°F19.7°C 90% Calm Calm -- 30.08 in1018.6 mb 0.00 in0.0 mm 0.00 in0.0 mm 0.00 in0.0 mm
12:05 AM 70.6°F21.4°C 67.2°F19.6°C 89% Calm Calm -- 30.08 in1018.6 mb 0.00 in0.0 mm 0.00 in0.0 mm 0.00 in0.0 mm
12:00 AM 70.7°F21.5°C 67.3°F19.6°C 89% Calm Calm -- 30.08 in1018.6 mb 0.00 in0.0 mm 0.00 in0.0 mm 0.00 in0.0 mm